Strona główna
METAR-TAF:

METAR-TAF

Lotnisko :

Port lotniczy Bintulu

Bintulu, Malezja

Szerokość geograficzna: 03-12N, Długość geograficzna: 113-02E, wysokość: 2 m

Aktualna obserwacja pogody

Raport powstał 28 minut temu, godzina 22:00 UTC
Wiatr 4 kt od wschodnio-południowy wschód, zmienny między wschodnio-północny wschód i południowo-południowy wschód
Temperatura 23°C
Wilgotność 94%
Ciśnienie 1011 hPa
Widzialność 10 km lub więcej
Rozproszone chmury na wysokości 1600 ft
słaby deszcz

METAR: WBGB 102200Z 12004KT 060V160 9999 -RA SCT016 23/22 Q1011 RETSRA

czas: 06:28 (22:28 UTC)

Prognoza

Raport powstał 5 godziny i 28 minut temu, godzina 17:00 UTC
Prognoza ważna od 10 godzina 18 UTC do 11 godzina 18 UTC
Wiatr 3 kt z kierunków zmiennych
Widzialność 10 km lub więcej
Rozproszone chmury na wysokości 1600 ft
Przejściowo
od 10 godzina 18 UTC do 10 godzina 22 UTC
Widzialność: 5000 m
Mało chmury na wysokości 1500 ft, Cumulonimbus.
burza, słaby deszcz

TAF: WBGB 101700Z 1018/1118 VRB03KT 9999 SCT016 TEMPO 1018/1022 5000 -TSRA FEW015CB

Obserwacja i prognoza pogody dla ponad 4000 lotnisk (raport METAR i TAF).

Dostępne stacje oznaczono żółtymi i czerwonymi punktami na mapie.

Najedź kursorem aby zobaczyć nazwę stacji.

Kliknij aby zobaczyć obserwacje i prognozy pogody.

Aby zmienić mapę: kliknij na zielony przycisk z czarnym krzyżykiem, aby powiększyć; na zielony przycisk z myślnikiem, aby pomniejszyć; na zielone strzałki, aby przejść do map sąsiednich.


METAR-TAF: